createdAt,value
2018-11-12T00:07:46.264Z,17.2
2018-11-12T00:17:45.470Z,17.2
2018-11-12T00:27:44.686Z,17.1
2018-11-12T00:37:43.904Z,17.1
2018-11-12T00:47:43.158Z,17.1
2018-11-12T00:57:42.317Z,17.1
2018-11-12T01:07:41.528Z,17.1
2018-11-12T01:17:40.734Z,17.1
2018-11-12T01:27:39.948Z,17.1
2018-11-12T01:37:39.161Z,17.1
2018-11-12T01:47:38.368Z,17.1
2018-11-12T01:57:37.579Z,17.1
2018-11-12T02:07:36.790Z,17.1
2018-11-12T02:17:36.005Z,17.1
2018-11-12T02:27:35.215Z,17.1
2018-11-12T02:37:34.428Z,16.9
2018-11-12T02:47:33.639Z,16.9
2018-11-12T02:57:32.896Z,16.9
2018-11-12T03:07:32.075Z,16.9
2018-11-12T03:17:31.281Z,16.9
2018-11-12T03:27:30.534Z,16.9
2018-11-12T03:37:29.696Z,16.9
2018-11-12T03:47:28.908Z,16.6
2018-11-12T03:57:28.114Z,16.6
2018-11-12T04:07:27.324Z,16.5
2018-11-12T04:17:26.535Z,16.5
2018-11-12T04:27:25.749Z,16.4
2018-11-12T04:37:24.952Z,16.3
2018-11-12T04:47:24.168Z,16.3
2018-11-12T04:57:23.377Z,16.3
2018-11-12T05:07:22.627Z,16.3
2018-11-12T05:17:21.798Z,16.2
2018-11-12T05:27:21.004Z,16.2
2018-11-12T05:37:20.216Z,16.2
2018-11-12T05:47:19.432Z,16.2
2018-11-12T05:57:18.644Z,16.2
2018-11-12T06:07:17.851Z,16.1
2018-11-12T06:17:17.064Z,16.1
2018-11-12T06:27:16.280Z,16.3
2018-11-12T06:37:15.478Z,16.4
2018-11-12T06:47:14.697Z,16.6
2018-11-12T06:57:13.906Z,16.8
2018-11-12T07:07:13.161Z,17.1
2018-11-12T07:17:12.322Z,17.4
2018-11-12T07:27:11.527Z,17.8
2018-11-12T07:37:10.738Z,18.2
2018-11-12T07:47:09.951Z,18.6
2018-11-12T07:57:09.157Z,19.1
2018-11-12T08:07:08.466Z,19.7
2018-11-12T08:17:07.577Z,20.3
2018-11-12T08:27:06.793Z,20.9
2018-11-12T08:37:06.057Z,21.5
2018-11-12T08:47:05.214Z,22.2
2018-11-12T08:57:04.413Z,22.9
2018-11-12T09:07:03.638Z,23.6
2018-11-12T09:17:02.841Z,24.3
2018-11-12T09:27:02.042Z,25
2018-11-12T09:37:01.252Z,25.7
2018-11-12T09:47:00.469Z,26.4
2018-11-12T09:56:59.670Z,27.1
2018-11-12T10:07:00.817Z,27.8
2018-11-12T10:17:01.117Z,28.5
2018-11-12T10:26:57.301Z,29.3
2018-11-12T10:36:56.505Z,29.9
2018-11-12T10:46:55.717Z,30.6
2018-11-12T10:56:54.927Z,31.3
2018-11-12T11:06:54.138Z,31.9
2018-11-12T11:16:53.350Z,32.4
2018-11-12T11:26:52.559Z,33.1
2018-11-12T11:36:51.768Z,33.6
2018-11-12T11:46:50.979Z,33.9
2018-11-12T11:56:50.365Z,34.6
2018-11-12T12:06:49.398Z,35.1
2018-11-12T12:16:48.609Z,35.8
2018-11-12T12:26:47.819Z,36.4
2018-11-12T12:36:47.143Z,36.9
2018-11-12T12:46:46.240Z,37.6
2018-11-12T12:56:45.446Z,38.1
2018-11-12T13:06:44.755Z,38.7
2018-11-12T13:16:43.873Z,39.2
2018-11-12T13:26:43.079Z,39.7
2018-11-12T13:36:42.288Z,40.1
2018-11-12T13:46:41.595Z,40.5
2018-11-12T13:56:40.704Z,40.9
2018-11-12T14:06:39.910Z,41.3
2018-11-12T14:16:39.121Z,41.5
2018-11-12T14:26:38.334Z,41.8
2018-11-12T14:36:37.539Z,41.9
2018-11-12T14:46:36.748Z,42
2018-11-12T14:56:35.959Z,42
2018-11-12T15:06:35.172Z,42.1
2018-11-12T15:16:34.381Z,42
2018-11-12T15:26:33.591Z,41.9
2018-11-12T15:36:32.863Z,41.9
2018-11-12T15:46:32.006Z,41.9
2018-11-12T15:56:31.225Z,41.5
2018-11-12T16:06:30.506Z,41.1
2018-11-12T16:16:29.641Z,41.1
2018-11-12T16:26:28.880Z,39.3
2018-11-12T16:36:28.070Z,37.6
2018-11-12T16:46:27.276Z,35.7
2018-11-12T16:56:26.500Z,34.6
2018-11-12T17:06:25.753Z,34.9
2018-11-12T17:16:24.921Z,34.9
2018-11-12T17:26:24.129Z,34.5
2018-11-12T17:36:23.353Z,34.6
2018-11-12T17:46:22.560Z,34.6
2018-11-12T17:56:21.759Z,34.6
2018-11-12T18:06:20.969Z,34.4
2018-11-12T18:16:20.193Z,34.4
2018-11-12T18:26:19.398Z,34.3
2018-11-12T18:36:18.607Z,34.2
2018-11-12T18:46:17.811Z,32.9
2018-11-12T18:56:17.022Z,33.3
2018-11-12T19:06:16.234Z,33.4
2018-11-12T19:16:15.451Z,33.4
2018-11-12T19:26:14.661Z,33.4
2018-11-12T19:36:13.875Z,32.9
2018-11-12T19:46:13.134Z,33.1
2018-11-12T19:56:12.292Z,33.1
2018-11-12T20:06:11.507Z,32.9
2018-11-12T20:16:10.717Z,32.5
2018-11-12T20:26:09.935Z,30.9
2018-11-12T20:36:09.145Z,29.1
2018-11-12T20:46:08.356Z,29.3
2018-11-12T20:56:07.581Z,29.4
2018-11-12T21:06:06.779Z,29.4
2018-11-12T21:16:05.997Z,29.5
2018-11-12T21:26:05.199Z,29.5
2018-11-12T21:36:04.417Z,29.5
2018-11-12T21:46:03.623Z,29.5
2018-11-12T21:56:02.826Z,29.6
2018-11-12T22:06:02.037Z,29.5
2018-11-12T22:16:01.253Z,29.6
2018-11-12T22:26:00.495Z,29.5
2018-11-12T22:35:59.671Z,29.5
2018-11-12T22:45:59.054Z,29.5
2018-11-12T22:55:58.091Z,29.5
2018-11-12T23:05:57.307Z,29.5
2018-11-12T23:15:56.509Z,29.5
2018-11-12T23:25:55.720Z,29.5
2018-11-12T23:35:54.930Z,29.5
2018-11-12T23:45:54.135Z,29.5
2018-11-12T23:55:53.399Z,29.5
